createdAt,value
2022-09-12T00:01:54.327Z,72.37
2022-09-12T00:04:21.396Z,72.90
2022-09-12T00:06:48.286Z,72.82
2022-09-12T00:09:15.675Z,73.18
2022-09-12T00:11:45.613Z,72.94
2022-09-12T00:14:15.217Z,73.08
2022-09-12T00:16:42.384Z,72.75
2022-09-12T00:19:10.691Z,73.23
2022-09-12T00:21:39.287Z,72.76
2022-09-12T00:24:06.746Z,73.04
2022-09-12T00:26:33.838Z,73.15
2022-09-12T00:29:00.767Z,72.88
2022-09-12T00:31:28.266Z,72.79
2022-09-12T00:34:00.849Z,73.26
2022-09-12T00:36:28.863Z,73.21
2022-09-12T00:38:55.915Z,72.91
2022-09-12T00:41:25.952Z,73.42
2022-09-12T00:44:12.398Z,73.23
2022-09-12T00:46:59.238Z,73.44
2022-09-12T00:49:31.706Z,73.43
2022-09-12T00:52:04.684Z,73.19
2022-09-12T00:55:07.829Z,73.02
2022-09-12T00:57:45.668Z,73.04
2022-09-12T01:03:23.402Z,72.76
2022-09-12T01:06:16.978Z,73.23
2022-09-12T01:08:44.447Z,72.89
2022-09-12T01:11:11.649Z,73.12
2022-09-12T01:13:43.604Z,72.96
2022-09-12T01:16:10.577Z,73.65
2022-09-12T01:18:56.511Z,73.40
2022-09-12T01:21:47.904Z,73.26
2022-09-12T01:24:45.280Z,73.69
2022-09-12T01:27:36.282Z,73.51
2022-09-12T01:30:25.253Z,73.61
2022-09-12T01:33:41.343Z,73.52
2022-09-12T01:36:26.937Z,73.77
2022-09-12T01:39:04.541Z,73.79
2022-09-12T01:42:01.393Z,73.72
2022-09-12T01:44:36.959Z,74.01
2022-09-12T01:47:32.061Z,73.70
2022-09-12T01:50:04.191Z,73.75
2022-09-12T01:52:50.781Z,73.76
2022-09-12T01:55:25.444Z,73.66
2022-09-12T01:58:15.758Z,74.10
2022-09-12T02:00:46.094Z,73.81
2022-09-12T02:03:15.366Z,73.90
2022-09-12T02:05:45.411Z,74.30
2022-09-12T02:08:17.905Z,73.80
2022-09-12T02:10:53.856Z,73.95
2022-09-12T02:13:29.966Z,74.38
2022-09-12T02:15:59.249Z,74.51
2022-09-12T02:18:26.358Z,74.14
2022-09-12T02:20:53.400Z,74.24
2022-09-12T02:23:22.735Z,74.43
2022-09-12T02:25:52.938Z,74.47
2022-09-12T02:28:27.686Z,73.94
2022-09-12T02:31:13.968Z,73.99
2022-09-12T02:34:25.403Z,74.51
2022-09-12T02:37:08.038Z,74.53
2022-09-12T02:39:35.586Z,74.35
2022-09-12T02:42:02.717Z,74.36
2022-09-12T02:44:30.148Z,74.67
2022-09-12T02:47:00.316Z,74.08
2022-09-12T02:49:27.268Z,74.54
2022-09-12T02:51:54.213Z,74.62
2022-09-12T02:54:21.792Z,74.49
2022-09-12T02:56:49.536Z,74.82
2022-09-12T02:59:20.447Z,74.60
2022-09-12T03:02:29.633Z,74.31
2022-09-12T03:05:47.349Z,74.38
2022-09-12T03:08:51.111Z,74.25
2022-09-12T03:11:59.580Z,74.31
2022-09-12T03:14:26.549Z,74.29
2022-09-12T03:16:53.432Z,74.47
2022-09-12T03:19:33.421Z,74.54
2022-09-12T03:22:21.133Z,74.62
2022-09-12T03:25:17.467Z,74.63
2022-09-12T03:27:52.811Z,74.28
2022-09-12T03:30:20.946Z,74.49
2022-09-12T03:32:50.341Z,74.24
2022-09-12T03:35:22.872Z,74.38
2022-09-12T03:37:51.074Z,74.41
2022-09-12T03:40:19.530Z,74.26
2022-09-12T03:42:46.497Z,74.65
2022-09-12T03:45:13.534Z,74.47
2022-09-12T03:47:40.792Z,74.94
2022-09-12T03:50:08.072Z,74.55
2022-09-12T03:52:35.037Z,74.57
2022-09-12T03:55:01.965Z,74.61
2022-09-12T03:57:28.973Z,75.13
2022-09-12T03:59:55.984Z,74.83
2022-09-12T04:02:23.862Z,74.79
2022-09-12T04:04:50.951Z,74.78
2022-09-12T04:07:18.015Z,74.91
2022-09-12T04:09:44.983Z,75.26
2022-09-12T04:12:13.008Z,75.30
2022-09-12T04:14:40.245Z,74.98
2022-09-12T04:17:07.176Z,75.02
2022-09-12T04:19:34.402Z,75.43
2022-09-12T04:22:04.163Z,75.44
2022-09-12T04:24:31.159Z,75.63
2022-09-12T04:26:58.145Z,75.53
2022-09-12T04:29:25.440Z,75.54
2022-09-12T04:31:52.374Z,75.21
2022-09-12T04:34:20.159Z,75.23
2022-09-12T04:36:47.056Z,75.45
2022-09-12T04:39:14.006Z,75.04
2022-09-12T04:41:42.161Z,75.19
2022-09-12T04:44:12.483Z,75.18
2022-09-12T04:46:41.748Z,75.54
2022-09-12T04:49:08.724Z,75.33
2022-09-12T04:51:36.961Z,75.75
2022-09-12T04:54:07.158Z,75.65
2022-09-12T04:56:37.871Z,75.65
2022-09-12T04:59:05.142Z,75.70
2022-09-12T05:01:32.057Z,75.63
2022-09-12T05:04:01.502Z,75.66
2022-09-12T05:06:31.164Z,75.77
2022-09-12T05:08:58.849Z,75.79
2022-09-12T05:11:46.899Z,75.71
2022-09-12T05:14:15.697Z,75.87
2022-09-12T05:16:47.214Z,76.02
2022-09-12T05:19:16.276Z,76.12
2022-09-12T05:21:43.348Z,75.99
2022-09-12T05:24:11.642Z,76.46
2022-09-12T05:26:38.699Z,76.42
2022-09-12T05:29:07.270Z,76.64
2022-09-12T05:31:34.912Z,76.80
2022-09-12T05:34:04.703Z,76.57
2022-09-12T05:36:31.582Z,76.61
2022-09-12T05:38:59.867Z,76.95
2022-09-12T05:41:33.697Z,76.83
2022-09-12T05:44:02.084Z,77.18
2022-09-12T05:46:31.014Z,76.91
2022-09-12T05:49:02.979Z,76.96
2022-09-12T05:51:33.045Z,77.16
2022-09-12T05:54:01.319Z,77.03
2022-09-12T05:56:29.904Z,77.19
2022-09-12T05:58:59.254Z,76.91
2022-09-12T06:01:27.399Z,77.39
2022-09-12T06:03:56.352Z,77.20
2022-09-12T06:06:24.599Z,77.50
2022-09-12T06:08:53.157Z,77.36
2022-09-12T06:11:26.103Z,77.30
2022-09-12T06:13:53.414Z,77.23
2022-09-12T06:16:22.230Z,77.18
2022-09-12T06:18:54.153Z,77.49
2022-09-12T06:21:21.902Z,77.46
2022-09-12T06:23:49.824Z,77.37
2022-09-12T06:26:17.829Z,77.60
2022-09-12T06:28:45.189Z,77.47
2022-09-12T06:31:20.777Z,77.58
2022-09-12T06:33:50.522Z,77.64
2022-09-12T06:36:24.522Z,77.86
2022-09-12T06:38:59.493Z,77.81
2022-09-12T06:41:27.138Z,78.04
2022-09-12T06:43:54.407Z,78.30
2022-09-12T06:46:21.675Z,77.89
2022-09-12T06:48:49.148Z,77.70
2022-09-12T06:51:18.043Z,77.85
2022-09-12T06:53:45.441Z,78.07
2022-09-12T06:56:20.297Z,77.82
2022-09-12T06:58:49.278Z,77.83
2022-09-12T07:01:24.387Z,78.12
2022-09-12T07:03:56.328Z,77.85
2022-09-12T07:06:24.900Z,78.35
2022-09-12T07:08:51.941Z,77.69
2022-09-12T07:11:23.840Z,78.00
2022-09-12T07:13:52.843Z,78.00
2022-09-12T07:16:23.079Z,77.77
2022-09-12T07:18:58.303Z,78.29
2022-09-12T07:21:25.689Z,78.10
2022-09-12T07:23:52.897Z,78.16
2022-09-12T07:26:20.501Z,78.14
2022-09-12T07:28:52.173Z,78.49
2022-09-12T07:31:20.696Z,78.30
2022-09-12T07:33:52.376Z,78.14
2022-09-12T07:36:23.589Z,78.11
2022-09-12T07:38:57.795Z,78.29
2022-09-12T07:41:34.080Z,77.88
2022-09-12T07:44:03.536Z,77.86
2022-09-12T07:46:31.695Z,77.69
2022-09-12T07:49:00.568Z,77.62
2022-09-12T07:51:30.908Z,77.87
2022-09-12T07:53:58.260Z,77.59
2022-09-12T07:56:29.623Z,77.16
2022-09-12T07:59:01.528Z,77.25
2022-09-12T08:01:28.831Z,77.00
2022-09-12T08:03:58.966Z,77.00
2022-09-12T08:06:27.350Z,77.30
2022-09-12T08:08:55.934Z,76.52
2022-09-12T08:11:24.062Z,76.70
2022-09-12T08:13:55.374Z,76.44
2022-09-12T08:16:25.414Z,76.56
2022-09-12T08:18:52.330Z,76.99
2022-09-12T08:21:21.446Z,76.88
2022-09-12T08:23:51.842Z,76.64
2022-09-12T08:26:21.228Z,75.89
2022-09-12T08:28:48.894Z,75.58
2022-09-12T08:31:17.660Z,75.14
2022-09-12T08:33:45.085Z,75.56
2022-09-12T08:36:15.756Z,75.17
2022-09-12T08:38:44.728Z,75.02
2022-09-12T08:41:21.360Z,74.43
2022-09-12T08:44:07.233Z,74.11
2022-09-12T08:46:52.226Z,74.27
2022-09-12T08:49:52.534Z,74.37
2022-09-12T08:52:52.096Z,73.85
2022-09-12T08:55:24.437Z,73.70
2022-09-12T08:57:52.102Z,73.79
2022-09-12T09:00:20.085Z,73.62
2022-09-12T09:03:02.085Z,73.93
2022-09-12T09:05:57.756Z,73.40
2022-09-12T09:08:50.749Z,73.41
2022-09-12T09:11:59.227Z,73.30
2022-09-12T09:14:52.826Z,73.25
2022-09-12T09:17:22.084Z,73.41
2022-09-12T09:19:51.674Z,72.66
2022-09-12T09:22:40.559Z,73.08
2022-09-12T09:25:23.111Z,72.88
2022-09-12T09:28:06.472Z,72.17
2022-09-12T09:30:34.242Z,72.56
2022-09-12T09:33:01.467Z,71.83
2022-09-12T09:36:06.768Z,71.31
2022-09-12T09:38:36.327Z,71.38
2022-09-12T09:41:30.321Z,70.71
2022-09-12T09:43:57.887Z,70.45
2022-09-12T09:46:25.254Z,70.17
2022-09-12T09:48:52.203Z,69.65
2022-09-12T09:51:24.894Z,69.26
2022-09-12T09:53:58.492Z,68.39
2022-09-12T09:56:42.443Z,67.79
2022-09-12T09:59:11.998Z,67.81
2022-09-12T10:01:54.985Z,67.53
2022-09-12T10:04:23.925Z,67.05
2022-09-12T10:06:58.891Z,66.99
2022-09-12T10:09:27.831Z,66.75
2022-09-12T10:11:56.478Z,66.45
2022-09-12T10:14:31.075Z,66.39
2022-09-12T10:16:58.785Z,66.16
2022-09-12T10:19:37.635Z,65.90
2022-09-12T10:22:08.236Z,65.06
2022-09-12T10:24:39.676Z,64.46
2022-09-12T10:27:12.449Z,64.99
2022-09-12T10:29:51.959Z,64.60
2022-09-12T10:32:20.547Z,63.86
2022-09-12T10:34:47.530Z,63.21
2022-09-12T10:37:46.011Z,62.89
2022-09-12T10:40:42.698Z,62.85
2022-09-12T10:43:25.768Z,62.49
2022-09-12T10:45:52.874Z,61.56
2022-09-12T10:48:31.896Z,61.31
2022-09-12T10:50:59.714Z,61.01
2022-09-12T10:53:34.544Z,60.26
2022-09-12T10:56:19.085Z,59.87
2022-09-12T10:59:00.323Z,60.10
2022-09-12T11:01:36.977Z,60.31
2022-09-12T11:04:33.703Z,60.07
2022-09-12T11:07:22.186Z,60.30
2022-09-12T11:10:36.917Z,60.12
2022-09-12T11:13:32.743Z,59.90
2022-09-12T11:16:23.125Z,59.79
2022-09-12T11:19:11.173Z,59.64
2022-09-12T11:22:08.883Z,59.97
2022-09-12T11:24:44.583Z,59.96
2022-09-12T11:27:35.775Z,59.39
2022-09-12T11:30:14.072Z,59.84
2022-09-12T11:32:56.488Z,59.51
2022-09-12T11:35:30.027Z,59.64
2022-09-12T11:40:44.385Z,59.09
2022-09-12T11:43:22.270Z,58.82
2022-09-12T11:45:52.793Z,58.64
2022-09-12T11:48:41.892Z,58.61
2022-09-12T11:51:18.704Z,58.78
2022-09-12T11:53:47.017Z,58.51
2022-09-12T11:56:17.972Z,58.22
2022-09-12T11:58:50.096Z,58.19
2022-09-12T12:01:44.983Z,58.24
2022-09-12T12:04:16.168Z,58.54
2022-09-12T12:06:53.041Z,58.49
2022-09-12T12:09:20.504Z,58.25
2022-09-12T12:11:56.090Z,57.75
2022-09-12T12:14:25.846Z,57.48
2022-09-12T12:16:52.742Z,56.94
2022-09-12T12:19:51.134Z,57.37
2022-09-12T12:22:23.265Z,56.83
2022-09-12T12:24:57.225Z,56.67
2022-09-12T12:27:45.506Z,56.89
2022-09-12T12:30:38.690Z,56.53
2022-09-12T12:33:13.043Z,56.86
2022-09-12T12:35:42.933Z,56.54
2022-09-12T12:38:32.792Z,56.86
2022-09-12T12:41:17.938Z,55.75
2022-09-12T12:43:46.063Z,55.46
2022-09-12T12:46:20.554Z,55.11
2022-09-12T12:49:06.192Z,55.39
2022-09-12T12:51:44.290Z,55.15
2022-09-12T12:54:27.578Z,55.15
2022-09-12T12:57:02.988Z,55.03
2022-09-12T12:59:29.871Z,55.18
2022-09-12T13:01:56.862Z,55.60
2022-09-12T13:04:26.533Z,54.79
2022-09-12T13:07:04.579Z,54.86
2022-09-12T13:09:34.983Z,54.53
2022-09-12T13:12:04.312Z,54.61
2022-09-12T13:14:43.212Z,54.83
2022-09-12T13:17:42.336Z,54.00
2022-09-12T13:20:30.235Z,53.63
2022-09-12T13:22:58.015Z,54.00
2022-09-12T13:25:35.462Z,53.74
2022-09-12T13:28:04.012Z,53.34
2022-09-12T13:30:36.383Z,53.27
2022-09-12T13:33:09.225Z,53.59
2022-09-12T13:36:40.724Z,53.38
2022-09-12T13:39:29.491Z,53.16
2022-09-12T13:42:26.145Z,53.30
2022-09-12T13:44:58.769Z,53.14
2022-09-12T13:47:28.690Z,52.78
2022-09-12T13:49:55.624Z,53.05
2022-09-12T13:52:25.357Z,52.88
2022-09-12T13:54:53.612Z,52.84
2022-09-12T13:57:37.603Z,52.92
2022-09-12T14:00:20.119Z,52.48
2022-09-12T14:02:48.019Z,52.76
2022-09-12T14:05:22.640Z,52.43
2022-09-12T14:07:56.500Z,52.36
2022-09-12T14:10:28.307Z,52.35
2022-09-12T14:12:57.373Z,52.35
2022-09-12T14:15:27.270Z,52.46
2022-09-12T14:17:56.642Z,52.61
2022-09-12T14:20:23.829Z,52.43
2022-09-12T14:22:51.482Z,52.03
2022-09-12T14:25:21.045Z,51.78
2022-09-12T14:27:52.088Z,51.41
2022-09-12T14:30:36.621Z,51.59
2022-09-12T14:33:12.641Z,52.01
2022-09-12T14:35:49.125Z,52.30
2022-09-12T14:38:15.880Z,51.91
2022-09-12T14:40:48.832Z,51.23
2022-09-12T14:43:25.502Z,51.69
2022-09-12T14:46:03.065Z,51.18
2022-09-12T14:48:32.369Z,51.08
2022-09-12T14:50:59.420Z,50.60
2022-09-12T14:53:34.535Z,51.02
2022-09-12T14:56:13.927Z,51.08
2022-09-12T14:58:41.714Z,51.10
2022-09-12T15:01:08.637Z,51.15
2022-09-12T15:03:36.714Z,50.76
2022-09-12T15:06:05.991Z,50.59
2022-09-12T15:08:33.009Z,50.82
2022-09-12T15:11:00.190Z,50.20
2022-09-12T15:13:28.625Z,50.54
2022-09-12T15:15:56.979Z,50.37
2022-09-12T15:18:26.027Z,50.07
2022-09-12T15:20:58.320Z,50.37
2022-09-12T15:23:38.247Z,50.43
2022-09-12T15:26:05.606Z,50.54
2022-09-12T15:28:33.572Z,50.76
2022-09-12T15:31:06.863Z,50.75
2022-09-12T15:33:34.025Z,50.97
2022-09-12T15:36:00.936Z,50.19
2022-09-12T15:38:27.873Z,50.28
2022-09-12T15:40:54.871Z,50.00
2022-09-12T15:43:22.725Z,50.38
2022-09-12T15:45:52.639Z,50.47
2022-09-12T15:48:21.112Z,50.94
2022-09-12T15:50:49.143Z,50.69
2022-09-12T15:53:16.834Z,50.41
2022-09-12T15:55:44.024Z,50.58
2022-09-12T15:58:11.115Z,50.26
2022-09-12T16:00:38.043Z,50.61
2022-09-12T16:03:05.180Z,50.97
2022-09-12T16:05:32.629Z,50.94
2022-09-12T16:07:59.560Z,50.94
2022-09-12T16:10:29.073Z,51.23
2022-09-12T16:12:56.312Z,50.73
2022-09-12T16:15:24.891Z,50.64
2022-09-12T16:17:52.320Z,50.60
2022-09-12T16:20:23.366Z,50.48
2022-09-12T16:22:50.395Z,50.40
2022-09-12T16:25:17.856Z,50.47
2022-09-12T16:27:44.913Z,50.48
2022-09-12T16:30:13.132Z,51.17
2022-09-12T16:32:40.221Z,50.90
2022-09-12T16:35:07.639Z,51.22
2022-09-12T16:37:34.739Z,51.23
2022-09-12T16:40:03.049Z,50.81
2022-09-12T16:42:30.345Z,51.00
2022-09-12T16:44:57.303Z,50.74
2022-09-12T16:47:24.269Z,50.94
2022-09-12T16:49:51.462Z,51.21
2022-09-12T16:52:20.066Z,51.06
2022-09-12T16:54:46.958Z,50.95
2022-09-12T16:57:14.302Z,51.30
2022-09-12T16:59:41.206Z,51.71
2022-09-12T17:02:10.817Z,51.85
2022-09-12T17:04:38.076Z,51.92
2022-09-12T17:07:04.965Z,52.30
2022-09-12T17:09:31.891Z,52.34
2022-09-12T17:11:59.093Z,52.76
2022-09-12T17:14:26.005Z,52.61
2022-09-12T17:16:52.932Z,52.81
2022-09-12T17:19:22.791Z,53.36
2022-09-12T17:21:50.259Z,53.19
2022-09-12T17:24:17.824Z,53.29
2022-09-12T17:26:45.488Z,53.09
2022-09-12T17:29:13.960Z,52.77
2022-09-12T17:31:41.631Z,52.96
2022-09-12T17:34:09.006Z,53.05
2022-09-12T17:36:35.984Z,53.29
2022-09-12T17:39:04.181Z,53.53
2022-09-12T17:41:34.509Z,53.38
2022-09-12T17:44:02.802Z,53.53
2022-09-12T17:46:35.839Z,53.53
2022-09-12T17:49:04.745Z,53.44
2022-09-12T17:51:31.921Z,53.86
2022-09-12T17:54:04.927Z,53.90
2022-09-12T17:56:33.088Z,53.99
2022-09-12T17:59:00.127Z,54.16
2022-09-12T18:01:46.739Z,53.69
2022-09-12T18:04:13.775Z,54.32
2022-09-12T18:06:47.861Z,54.62
2022-09-12T18:09:19.921Z,54.51
2022-09-12T18:11:48.129Z,55.10
2022-09-12T18:14:15.593Z,55.23
2022-09-12T18:16:43.335Z,55.80
2022-09-12T18:19:10.994Z,56.08
2022-09-12T18:21:38.144Z,56.64
2022-09-12T18:24:05.277Z,56.73
2022-09-12T18:26:32.664Z,56.79
2022-09-12T18:28:59.743Z,57.15
2022-09-12T18:31:29.423Z,57.24
2022-09-12T18:33:56.989Z,56.97
2022-09-12T18:36:23.950Z,57.39
2022-09-12T18:38:50.890Z,57.85
2022-09-12T18:41:22.164Z,58.08
2022-09-12T18:43:50.164Z,57.91
2022-09-12T18:46:18.842Z,58.25
2022-09-12T18:48:46.033Z,58.58
2022-09-12T18:51:18.475Z,58.36
2022-09-12T18:53:52.133Z,58.57
2022-09-12T18:56:23.183Z,58.69
2022-09-12T18:58:52.369Z,59.08
2022-09-12T19:01:23.858Z,59.60
2022-09-12T19:03:52.440Z,59.41
2022-09-12T19:06:24.206Z,59.54
2022-09-12T19:08:52.254Z,59.78
2022-09-12T19:11:20.674Z,60.13
2022-09-12T19:13:49.310Z,60.00
2022-09-12T19:16:20.390Z,60.03
2022-09-12T19:18:50.863Z,59.72
2022-09-12T19:21:21.307Z,60.71
2022-09-12T19:23:49.306Z,60.84
2022-09-12T19:26:17.200Z,60.55
2022-09-12T19:28:44.177Z,61.43
2022-09-12T19:31:13.731Z,61.04
2022-09-12T19:33:41.306Z,61.13
2022-09-12T19:36:27.569Z,61.27
2022-09-12T19:38:58.973Z,61.36
2022-09-12T19:41:25.986Z,61.23
2022-09-12T19:43:53.183Z,61.74
2022-09-12T19:46:24.102Z,61.67
2022-09-12T19:48:52.504Z,61.58
2022-09-12T19:51:21.238Z,61.84
2022-09-12T19:53:50.519Z,61.87
2022-09-12T19:56:17.424Z,61.71
2022-09-12T19:58:46.114Z,61.66
2022-09-12T20:01:14.814Z,62.41
2022-09-12T20:03:42.096Z,62.32
2022-09-12T20:06:16.824Z,62.71
2022-09-12T20:08:44.150Z,62.81
2022-09-12T20:11:15.480Z,63.38
2022-09-12T20:13:42.713Z,62.94
2022-09-12T20:16:20.993Z,63.01
2022-09-12T20:18:50.267Z,63.27
2022-09-12T20:21:20.133Z,62.99
2022-09-12T20:23:47.103Z,63.00
2022-09-12T20:26:14.111Z,63.18
2022-09-12T20:28:41.342Z,63.56
2022-09-12T20:31:11.439Z,63.38
2022-09-12T20:33:38.564Z,63.62
2022-09-12T20:36:08.692Z,63.84
2022-09-12T20:38:36.147Z,63.40
2022-09-12T20:41:04.881Z,63.62
2022-09-12T20:43:31.898Z,63.83
2022-09-12T20:45:58.903Z,63.66
2022-09-12T20:48:26.007Z,63.42
2022-09-12T20:50:52.956Z,63.86
2022-09-12T20:53:22.824Z,63.67
2022-09-12T20:55:51.674Z,63.82
2022-09-12T20:58:20.270Z,64.22
2022-09-12T21:00:47.298Z,63.83
2022-09-12T21:03:15.394Z,64.44
2022-09-12T21:05:46.270Z,63.81
2022-09-12T21:08:13.405Z,64.09
2022-09-12T21:10:41.944Z,64.67
2022-09-12T21:13:10.415Z,64.23
2022-09-12T21:15:38.605Z,64.35
2022-09-12T21:18:05.517Z,64.35
2022-09-12T21:20:32.659Z,64.28
2022-09-12T21:22:59.798Z,64.05
2022-09-12T21:25:27.781Z,64.19
2022-09-12T21:27:55.194Z,64.39
2022-09-12T21:30:22.346Z,64.17
2022-09-12T21:32:52.065Z,64.45
2022-09-12T21:35:19.263Z,64.55
2022-09-12T21:37:46.244Z,64.70
2022-09-12T21:40:13.384Z,64.58
2022-09-12T21:42:40.367Z,64.43
2022-09-12T21:45:07.528Z,64.42
2022-09-12T21:47:34.512Z,64.09
2022-09-12T21:50:01.470Z,64.54
2022-09-12T21:52:28.344Z,64.52
2022-09-12T21:54:56.742Z,64.52
2022-09-12T21:57:24.012Z,64.26
2022-09-12T21:59:50.902Z,64.24
2022-09-12T22:02:18.015Z,64.34
2022-09-12T22:04:44.952Z,64.60
2022-09-12T22:07:11.846Z,64.05
2022-09-12T22:09:38.850Z,64.62
2022-09-12T22:12:05.942Z,64.28
2022-09-12T22:14:33.370Z,64.71
2022-09-12T22:17:00.459Z,64.68
2022-09-12T22:19:27.356Z,64.66
2022-09-12T22:22:12.961Z,64.78
2022-09-12T22:24:39.924Z,64.54
2022-09-12T22:27:07.380Z,64.48
2022-09-12T22:29:34.578Z,65.33
2022-09-12T22:32:01.693Z,64.59
2022-09-12T22:34:29.046Z,65.23
2022-09-12T22:36:56.859Z,65.11
2022-09-12T22:39:23.813Z,64.93
2022-09-12T22:41:51.037Z,64.84
2022-09-12T22:44:17.955Z,64.96
2022-09-12T22:46:45.122Z,64.78
2022-09-12T22:49:12.854Z,64.88
2022-09-12T22:51:39.910Z,64.92
2022-09-12T22:54:06.862Z,64.66
2022-09-12T22:56:33.978Z,64.93
2022-09-12T22:59:01.469Z,64.82
2022-09-12T23:01:28.365Z,64.97
2022-09-12T23:03:55.328Z,64.95
2022-09-12T23:06:22.433Z,64.52
2022-09-12T23:08:49.676Z,64.74
2022-09-12T23:11:17.567Z,64.82
2022-09-12T23:13:46.645Z,64.68
2022-09-12T23:16:18.829Z,64.40
2022-09-12T23:18:45.824Z,64.56
2022-09-12T23:21:13.665Z,64.92
2022-09-12T23:23:40.704Z,65.12
2022-09-12T23:26:20.075Z,64.54
2022-09-12T23:28:58.024Z,65.01
2022-09-12T23:31:27.138Z,65.16
2022-09-12T23:33:54.202Z,65.48
2022-09-12T23:36:21.302Z,65.88
2022-09-12T23:38:48.850Z,66.03
2022-09-12T23:41:16.402Z,65.69
2022-09-12T23:43:45.417Z,65.82
2022-09-12T23:46:13.561Z,65.93
2022-09-12T23:48:40.923Z,66.05
2022-09-12T23:51:07.867Z,66.19
2022-09-12T23:53:35.809Z,67.04
2022-09-12T23:56:03.062Z,67.40
2022-09-12T23:58:31.262Z,67.38
